Keo, Arkansas
Current Conditions -  °F | °C
As of 11:53 AM on Thursday 30 Oct 2014 (Local Time) from KLIT Reporting Station
Scattered Clouds Scattered Clouds  
Wind Chill: 69°   Ceiling: Unl
Heat Index: 69°   Visibility: 10mi
Dew Point: 43°   Wind: 5mph
Humidity: 39%   Direction: 200°SSW
Pressure: 30.15"   Gusts: NA
Location:  34.6°N, 92.01°W
Report Text: KLIT 301653Z 20004KT 10SM SCT100 21/06 A3015 RMK AO2 SLP210 T02060061
Loading
Personal Weather Stations






























Interactive Weather Map
Tropical Storm Tracking
New forecast layout! Learn more

10-Day Weather Forecast

Advertisements
Track Severe Weather on mobile